Time;durP1;ratioP1;P1;durP2;ratioP2;P2;SDS_P1;SDS_P2;PMS_P1;PMS_P2;Temp;Humidity;BMP_temperature;BMP_pressure;BME280_temperature;BME280_humidity;BME280_pressure;Samples;Min_cycle;Max_cycle;Signal;HPM_P1;HPM_P2
2021/09/12 00:01:10;;;;;;;7.32;3.35;;;;;;;22.64;60.21;100102.47;5074416;28;20072;-66
2021/09/12 00:03:37;;;;;;;5.88;2.90;;;;;;;22.52;60.45;100076.19;5074593;28;20161;-65
2021/09/12 00:06:04;;;;;;;6.65;3.70;;;;;;;22.60;60.45;100089.38;5074429;28;20476;-64
2021/09/12 00:08:31;;;;;;;11.15;5.55;;;;;;;22.56;60.31;100072.19;5092598;28;20068;-63
2021/09/12 00:10:58;;;;;;;7.25;3.92;;;;;;;22.41;60.13;100059.69;5089026;28;20087;-63
2021/09/12 00:13:25;;;;;;;10.65;4.68;;;;;;;22.68;60.19;100086.31;5085467;28;20080;-64
2021/09/12 00:15:52;;;;;;;10.23;4.25;;;;;;;22.71;60.37;100087.59;5087412;28;20132;-64
2021/09/12 00:18:19;;;;;;;9.23;4.18;;;;;;;22.79;60.43;100085.69;5086256;28;20044;-62
2021/09/12 00:20:46;;;;;;;6.32;3.42;;;;;;;22.82;60.17;100077.22;5092849;28;20044;-62
2021/09/12 00:23:13;;;;;;;8.90;2.97;;;;;;;22.86;60.16;100069.59;5094018;28;20118;-61
2021/09/12 00:25:40;;;;;;;8.02;4.10;;;;;;;22.61;59.88;100036.94;5086140;28;20054;-67
2021/09/12 00:28:07;;;;;;;9.60;4.28;;;;;;;22.84;59.92;100072.00;5081654;28;20108;-65
2021/09/12 00:30:34;;;;;;;8.57;3.72;;;;;;;22.78;60.11;100056.41;5078397;28;20128;-65
2021/09/12 00:33:01;;;;;;;10.30;4.20;;;;;;;22.85;60.10;100067.13;5084372;28;20072;-64
2021/09/12 00:35:28;;;;;;;8.02;4.25;;;;;;;22.85;59.88;100061.44;5083657;28;20119;-64
2021/09/12 00:37:54;;;;;;;7.57;4.28;;;;;;;22.82;60.05;100060.16;5091815;28;20123;-62
2021/09/12 00:40:23;;;;;;;8.63;4.80;;;;;;;22.83;59.83;100053.25;5095195;28;20098;-62
2021/09/12 00:42:50;;;;;;;8.05;4.43;;;;;;;22.78;59.96;100039.34;5077428;28;20172;-60
2021/09/12 00:45:19;;;;;;;10.77;4.43;;;;;;;22.52;59.95;99997.31;5088214;28;20086;-60
2021/09/12 00:47:46;;;;;;;7.20;3.90;;;;;;;22.72;60.59;100032.28;5089516;28;20040;-72
2021/09/12 00:50:15;;;;;;;6.70;3.85;;;;;;;22.71;60.51;100022.94;5082559;28;20080;-73
2021/09/12 00:52:44;;;;;;;7.85;4.03;;;;;;;22.74;60.71;100037.63;5080001;28;20044;-62
2021/09/12 00:55:14;;;;;;;8.05;2.97;;;;;;;22.75;60.50;100036.41;5084681;28;20044;-63
2021/09/12 00:57:43;;;;;;;5.38;3.08;;;;;;;22.71;61.13;100030.66;5084590;28;20132;-63
2021/09/12 01:00:11;;;;;;;10.10;3.40;;;;;;;22.66;61.08;100031.75;5078182;28;20120;-64
2021/09/12 01:02:38;;;;;;;6.63;3.65;;;;;;;22.68;60.81;100025.72;5077041;28;20128;-64
2021/09/12 01:05:08;;;;;;;5.80;3.70;;;;;;;22.70;60.83;100031.84;5087136;28;20129;-65
2021/09/12 01:07:35;;;;;;;8.32;4.00;;;;;;;22.69;60.69;100033.03;5088149;28;20044;-65
2021/09/12 01:10:03;;;;;;;9.20;3.95;;;;;;;22.59;61.04;100016.56;5093359;28;20076;-63
2021/09/12 01:12:32;;;;;;;8.48;4.18;;;;;;;22.63;61.25;100031.69;5084160;28;20091;-63
2021/09/12 01:15:00;;;;;;;8.07;4.03;;;;;;;22.59;60.99;100030.78;5075394;28;20432;-63
2021/09/12 01:17:30;;;;;;;8.13;3.90;;;;;;;22.48;61.23;100014.31;5084534;28;20075;-62
2021/09/12 01:19:57;;;;;;;7.22;4.07;;;;;;;22.57;61.13;100031.19;5084490;28;20084;-68
2021/09/12 01:22:24;;;;;;;8.88;3.83;;;;;;;22.55;61.69;100018.53;5085345;28;20071;-66
2021/09/12 01:24:52;;;;;;;9.85;3.72;;;;;;;22.57;61.26;100016.13;5076883;28;20127;-67
2021/09/12 01:27:19;;;;;;;8.20;4.22;;;;;;;22.46;61.52;100005.34;5082390;28;20079;-68
2021/09/12 01:29:46;;;;;;;9.48;4.70;;;;;;;22.51;61.78;100012.75;5074643;28;20091;-71
2021/09/12 01:32:13;;;;;;;10.43;3.60;;;;;;;22.53;61.65;100015.22;5075521;28;20080;-67
2021/09/12 01:34:40;;;;;;;7.90;3.75;;;;;;;22.51;61.97;100011.94;5075092;28;20147;-68
2021/09/12 01:37:07;;;;;;;10.30;4.35;;;;;;;22.45;62.00;100002.88;5089356;28;20123;-65
2021/09/12 01:39:34;;;;;;;5.43;3.53;;;;;;;22.45;61.81;100009.38;5075524;28;20518;-70
2021/09/12 01:42:01;;;;;;;9.45;3.40;;;;;;;22.35;62.36;100007.13;5085803;28;20446;-69
2021/09/12 01:44:27;;;;;;;5.63;3.20;;;;;;;22.27;62.31;99991.13;5081669;28;20052;-69
2021/09/12 01:46:55;;;;;;;7.78;3.00;;;;;;;22.37;62.41;100007.59;5077109;28;20083;-62
2021/09/12 01:49:23;;;;;;;5.55;3.35;;;;;;;22.38;62.44;100005.56;5087753;28;20079;-62
2021/09/12 01:51:54;;;;;;;7.95;3.33;;;;;;;22.36;62.70;99993.72;5083068;28;20040;-62
2021/09/12 01:54:20;;;;;;;6.65;3.25;;;;;;;22.13;62.44;99959.50;5092774;28;20515;-62
2021/09/12 01:56:48;;;;;;;5.20;2.83;;;;;;;22.36;62.93;100003.09;5082707;28;20052;-64
2021/09/12 01:59:14;;;;;;;8.88;3.63;;;;;;;22.24;62.47;99975.63;5080748;28;20044;-69
2021/09/12 02:01:41;;;;;;;9.55;2.85;;;;;;;22.28;62.82;99989.91;5082659;28;20106;-68
2021/09/12 02:04:09;;;;;;;6.80;2.47;;;;;;;22.22;63.07;99995.09;5092665;28;20131;-69
2021/09/12 02:06:36;;;;;;;5.32;2.55;;;;;;;22.24;63.28;99998.38;5088545;28;20492;-74
2021/09/12 02:09:03;;;;;;;5.75;2.53;;;;;;;22.26;63.09;99994.31;5092603;28;20131;-72
2021/09/12 02:11:31;;;;;;;4.80;2.20;;;;;;;22.25;63.24;99993.50;5083466;28;20071;-66
2021/09/12 02:13:58;;;;;;;8.95;2.75;;;;;;;22.23;63.24;99984.53;5071896;28;20191;-66
2021/09/12 02:16:25;;;;;;;6.65;2.97;;;;;;;22.21;63.05;99999.13;5072084;28;20098;-66
2021/09/12 02:18:52;;;;;;;3.80;2.50;;;;;;;22.09;63.44;99984.19;5072376;28;20047;-68
2021/09/12 02:21:19;;;;;;;5.13;2.50;;;;;;;22.12;63.73;99989.97;5076697;28;20119;-68
2021/09/12 02:23:46;;;;;;;3.15;1.88;;;;;;;22.16;63.55;99987.22;5087134;28;20209;-70
2021/09/12 02:26:14;;;;;;;3.28;1.90;;;;;;;22.10;63.46;99985.84;5069581;28;20119;-70
2021/09/12 02:28:40;;;;;;;5.85;2.30;;;;;;;22.11;63.58;99991.13;5076054;28;20476;-66
2021/09/12 02:31:07;;;;;;;7.35;2.42;;;;;;;22.04;63.68;99982.44;5085470;28;20559;-68
2021/09/12 02:33:35;;;;;;;8.68;2.10;;;;;;;22.04;63.73;99975.94;5087041;28;20534;-69
2021/09/12 02:36:02;;;;;;;4.57;2.40;;;;;;;22.07;63.86;99995.94;5074083;28;20589;-72
2021/09/12 02:38:31;;;;;;;8.45;2.50;;;;;;;21.98;64.46;99990.47;5081915;28;20465;-69
2021/09/12 02:40:59;;;;;;;2.80;1.83;;;;;;;22.04;63.79;99987.31;5075924;28;20071;-69
2021/09/12 02:43:27;;;;;;;4.63;2.00;;;;;;;22.05;64.02;99986.97;5082318;28;20515;-67
2021/09/12 02:45:54;;;;;;;2.78;1.77;;;;;;;22.06;63.71;99999.16;5072446;28;20119;-67
2021/09/12 02:48:21;;;;;;;5.15;1.98;;;;;;;22.07;63.84;99997.94;5072093;28;20052;-67
2021/09/12 02:50:48;;;;;;;3.58;1.70;;;;;;;21.95;64.11;99991.22;5084724;28;20052;-70
2021/09/12 02:53:15;;;;;;;7.00;2.08;;;;;;;22.01;64.10;99992.53;5089372;28;20173;-72
2021/09/12 02:55:42;;;;;;;3.63;2.03;;;;;;;22.07;63.91;100000.78;5072777;28;20567;-72
2021/09/12 02:58:08;;;;;;;2.30;1.65;;;;;;;21.89;64.51;99994.72;5087688;28;20128;-62
2021/09/12 03:00:35;;;;;;;5.40;2.03;;;;;;;21.91;64.46;99990.28;5072174;28;20040;-62
2021/09/12 03:03:02;;;;;;;4.70;1.63;;;;;;;21.98;64.05;99996.16;5078187;28;20044;-62
2021/09/12 03:05:30;;;;;;;2.60;1.30;;;;;;;22.00;64.04;99992.94;5080359;28;20102;-63
2021/09/12 03:07:56;;;;;;;2.85;1.80;;;;;;;22.05;63.94;99991.81;5081195;28;20074;-63
2021/09/12 03:10:23;;;;;;;5.88;1.95;;;;;;;21.95;64.03;99991.22;5080979;28;20131;-62
2021/09/12 03:12:50;;;;;;;2.90;1.73;;;;;;;21.95;64.01;99996.88;5078048;28;20153;-62
2021/09/12 03:15:18;;;;;;;2.47;1.42;;;;;;;22.03;63.58;100000.72;5084442;28;20098;-62
2021/09/12 03:17:45;;;;;;;3.03;1.77;;;;;;;21.97;63.28;99982.28;5083209;28;20377;-61
2021/09/12 03:20:12;;;;;;;4.50;1.92;;;;;;;22.07;63.53;99983.72;5084518;28;20127;-61
2021/09/12 03:22:39;;;;;;;4.72;2.45;;;;;;;22.11;63.10;99984.63;5085039;28;20399;-61
2021/09/12 03:25:06;;;;;;;4.80;1.65;;;;;;;22.15;63.33;99980.72;5089478;28;20411;-61
2021/09/12 03:27:33;;;;;;;4.50;2.28;;;;;;;22.13;63.16;99991.59;5075752;28;20066;-61
2021/09/12 03:30:00;;;;;;;3.83;1.73;;;;;;;22.10;63.16;99992.34;5083231;28;20084;-61
2021/09/12 03:32:27;;;;;;;3.58;1.67;;;;;;;22.12;62.89;99997.66;5074987;28;20111;-61
2021/09/12 03:34:54;;;;;;;4.80;2.10;;;;;;;22.11;62.91;99993.16;5082467;28;20130;-62
2021/09/12 03:37:20;;;;;;;5.13;2.00;;;;;;;22.18;62.93;99996.19;5073207;28;20091;-63
2021/09/12 03:39:47;;;;;;;7.57;2.25;;;;;;;22.22;62.61;100005.63;5076041;28;20136;-63
2021/09/12 03:42:14;;;;;;;6.32;2.40;;;;;;;22.28;62.60;100004.13;5090477;28;20044;-62
2021/09/12 03:44:41;;;;;;;5.50;2.10;;;;;;;22.28;62.37;100011.84;5079596;28;20178;-62
2021/09/12 03:47:08;;;;;;;5.82;2.70;;;;;;;22.27;62.30;100002.50;5078499;28;20088;-63
2021/09/12 03:49:34;;;;;;;3.40;1.98;;;;;;;22.22;62.04;99985.72;5083891;28;20467;-63
2021/09/12 03:52:02;;;;;;;5.85;2.67;;;;;;;22.24;62.50;99992.69;5076217;28;20124;-64
2021/09/12 03:54:28;;;;;;;8.35;3.25;;;;;;;22.18;62.23;99984.81;5073718;28;20139;-61
2021/09/12 03:56:55;;;;;;;5.75;2.30;;;;;;;22.23;62.38;99990.22;5085567;28;20552;-61
2021/09/12 03:59:22;;;;;;;4.20;2.33;;;;;;;22.14;62.28;99975.34;5080674;28;20131;-60
2021/09/12 04:01:49;;;;;;;6.75;2.80;;;;;;;22.19;62.14;99992.19;5087511;28;20544;-61
2021/09/12 04:04:16;;;;;;;3.70;2.03;;;;;;;22.20;62.01;99991.78;5084904;28;20561;-64
2021/09/12 04:06:43;;;;;;;5.70;2.70;;;;;;;22.19;62.44;99984.47;5080874;28;20044;-66
2021/09/12 04:09:10;;;;;;;4.60;2.40;;;;;;;22.16;62.13;99975.84;5090876;28;20063;-68
2021/09/12 04:11:36;;;;;;;6.43;2.65;;;;;;;22.18;62.19;99996.19;5077892;28;20164;-65
2021/09/12 04:14:03;;;;;;;4.25;2.60;;;;;;;22.11;62.15;99988.28;5083622;28;20059;-64
2021/09/12 04:16:30;;;;;;;5.15;2.60;;;;;;;22.09;62.50;99979.31;5077986;28;20098;-64
2021/09/12 04:18:57;;;;;;;3.95;2.42;;;;;;;22.00;62.71;99973.84;5087903;28;20044;-64
2021/09/12 04:21:24;;;;;;;4.35;2.45;;;;;;;22.09;62.42;99989.88;5076179;28;20477;-64
2021/09/12 04:23:51;;;;;;;4.20;2.60;;;;;;;22.11;62.59;99984.63;5080895;28;20189;-66
2021/09/12 04:26:18;;;;;;;6.75;2.85;;;;;;;21.95;62.85;99974.16;5084974;28;20259;-65
2021/09/12 04:28:44;;;;;;;4.03;2.00;;;;;;;22.00;63.44;99984.41;5079798;28;20105;-66
2021/09/12 04:31:12;;;;;;;6.15;2.60;;;;;;;21.97;63.44;99980.28;5075785;28;20516;-65
2021/09/12 04:33:39;;;;;;;3.08;2.00;;;;;;;21.85;63.72;99974.72;5074659;28;20135;-66
2021/09/12 04:36:06;;;;;;;4.00;2.28;;;;;;;21.93;63.53;99987.91;5088998;28;20075;-64
2021/09/12 04:38:33;;;;;;;6.68;3.05;;;;;;;21.98;63.85;99989.63;5091743;28;20067;-63
2021/09/12 04:41:01;;;;;;;6.70;2.45;;;;;;;21.99;63.67;99980.72;5080798;28;20044;-63
2021/09/12 04:43:27;;;;;;;5.38;2.22;;;;;;;21.84;64.12;99989.28;5080771;28;20235;-63
2021/09/12 04:45:55;;;;;;;4.40;2.83;;;;;;;21.36;65.27;99949.59;5075399;28;20148;-63
2021/09/12 04:48:22;;;;;;;7.78;2.33;;;;;;;21.49;65.40;100004.28;5075162;28;20045;-63
2021/09/12 04:50:48;;;;;;;3.55;2.00;;;;;;;21.26;65.95;99987.91;5090141;28;20087;-63
2021/09/12 04:53:15;;;;;;;7.30;2.25;;;;;;;21.24;66.23;100003.63;5085700;28;20140;-62
2021/09/12 04:55:42;;;;;;;5.13;2.63;;;;;;;21.11;66.50;99996.41;5080496;28;20128;-62
2021/09/12 04:58:09;;;;;;;7.10;2.03;;;;;;;21.08;66.76;99997.13;5086183;28;20067;-62
2021/09/12 05:00:36;;;;;;;7.60;2.58;;;;;;;21.04;67.03;99997.84;5090978;28;20040;-64
2021/09/12 05:03:03;;;;;;;4.40;3.03;;;;;;;20.95;67.09;99983.00;5085424;28;20052;-62
2021/09/12 05:05:30;;;;;;;7.35;2.67;;;;;;;20.69;67.28;99962.84;5091540;28;20048;-61
2021/09/12 05:07:57;;;;;;;6.72;3.40;;;;;;;20.89;67.75;100001.50;5091536;28;20131;-70
2021/09/12 05:10:28;;;;;;;7.05;2.78;;;;;;;20.85;67.43;99992.03;5081982;28;20289;-65
2021/09/12 05:12:54;;;;;;;5.03;2.80;;;;;;;20.90;67.48;100000.31;5084810;28;20076;-64
2021/09/12 05:15:21;;;;;;;4.93;2.80;;;;;;;20.77;67.79;99995.88;5088103;28;20174;-63
2021/09/12 05:17:48;;;;;;;7.70;2.80;;;;;;;20.75;68.33;100001.09;5086352;28;20040;-62
2021/09/12 05:20:15;;;;;;;8.55;3.60;;;;;;;20.71;68.64;100001.00;5077548;28;20068;-60
2021/09/12 05:22:42;;;;;;;8.30;3.38;;;;;;;20.56;68.87;99970.59;5086980;28;20078;-65
2021/09/12 05:25:09;;;;;;;5.28;2.97;;;;;;;20.66;68.95;99989.09;5087647;28;20131;-64
2021/09/12 05:27:37;;;;;;;6.82;3.13;;;;;;;20.62;69.05;99988.19;5072796;28;20481;-64
2021/09/12 05:30:05;;;;;;;6.38;2.95;;;;;;;20.66;68.70;99989.91;5089030;28;20123;-65
2021/09/12 05:32:31;;;;;;;6.85;3.50;;;;;;;20.74;68.68;99996.59;5072787;28;20131;-67
2021/09/12 05:34:58;;;;;;;5.32;2.67;;;;;;;20.71;68.35;99998.16;5091964;28;20135;-67
2021/09/12 05:37:25;;;;;;;6.68;3.20;;;;;;;20.67;68.84;99999.25;5088331;28;20071;-64
2021/09/12 05:39:52;;;;;;;7.13;3.50;;;;;;;20.66;68.76;99992.75;5081384;28;20473;-63
2021/09/12 05:42:19;;;;;;;7.13;3.97;;;;;;;20.73;68.71;99992.13;5082092;28;20485;-63
2021/09/12 05:44:46;;;;;;;8.30;2.90;;;;;;;20.62;68.57;99983.31;5075931;28;20079;-68
2021/09/12 05:47:13;;;;;;;4.80;3.30;;;;;;;20.57;69.09;99992.91;5082285;28;20040;-67
2021/09/12 05:49:40;;;;;;;14.60;3.85;;;;;;;20.54;69.26;99993.63;5090353;28;20128;-67
2021/09/12 05:52:07;;;;;;;6.32;3.22;;;;;;;20.52;69.15;99979.00;5075498;28;20127;-63
2021/09/12 05:54:33;;;;;;;7.05;2.83;;;;;;;20.32;69.52;99965.81;5087717;28;20131;-63
2021/09/12 05:57:00;;;;;;;7.47;3.65;;;;;;;20.46;69.76;99993.75;5078044;28;20131;-64
2021/09/12 05:59:27;;;;;;;8.65;4.25;;;;;;;20.46;69.62;100003.09;5080837;28;20136;-62
2021/09/12 06:01:54;;;;;;;10.60;3.50;;;;;;;20.46;69.45;100003.09;5078084;28;20036;-63
2021/09/12 06:04:21;;;;;;;5.22;3.30;;;;;;;20.41;69.08;99986.34;5068783;28;20442;-64
2021/09/12 06:06:48;;;;;;;10.20;4.15;;;;;;;20.49;69.41;100004.38;5080803;28;20130;-63
2021/09/12 06:09:15;;;;;;;10.68;4.72;;;;;;;20.44;69.56;100011.13;5091658;28;20071;-63
2021/09/12 06:11:42;;;;;;;10.57;4.05;;;;;;;20.52;69.28;100021.53;5088041;28;20079;-66
2021/09/12 06:14:09;;;;;;;8.50;3.70;;;;;;;20.56;69.08;100016.78;5084950;28;20083;-64
2021/09/12 06:16:36;;;;;;;6.88;3.70;;;;;;;20.59;68.79;100021.75;5072545;28;20127;-63
2021/09/12 06:19:03;;;;;;;10.75;4.25;;;;;;;20.52;69.04;100015.88;5080775;28;20455;-64
2021/09/12 06:21:30;;;;;;;10.68;4.15;;;;;;;20.41;69.41;100000.53;5090066;28;20044;-64
2021/09/12 06:23:58;;;;;;;9.27;4.30;;;;;;;20.44;69.67;100016.78;5079285;28;20093;-64
2021/09/12 06:26:26;;;;;;;13.00;3.67;;;;;;;20.25;70.29;100005.31;5079935;28;20048;-67
2021/09/12 06:28:54;;;;;;;6.85;4.15;;;;;;;20.30;70.31;100036.22;5088373;28;20123;-65
2021/09/12 06:31:22;;;;;;;9.80;3.83;;;;;;;20.26;70.83;100035.28;5086217;28;20079;-67
2021/09/12 06:33:49;;;;;;;5.50;2.75;;;;;;;20.28;70.65;100038.63;5077091;28;20051;-62
2021/09/12 06:36:17;;;;;;;7.05;4.28;;;;;;;20.32;70.80;100048.88;5089080;28;20490;-66
2021/09/12 06:38:45;;;;;;;9.30;4.40;;;;;;;20.41;70.36;100051.56;5074534;28;20127;-73
2021/09/12 06:41:12;;;;;;;8.48;4.13;;;;;;;20.49;69.92;100042.09;5073096;28;20132;-70
2021/09/12 06:43:39;;;;;;;10.00;4.15;;;;;;;20.55;70.18;100062.56;5072918;28;20055;-75
2021/09/12 06:46:06;;;;;;;7.95;4.00;;;;;;;20.47;70.37;100050.13;5077606;28;20488;-65
2021/09/12 06:48:33;;;;;;;7.45;4.50;;;;;;;20.55;70.17;100049.19;5076916;28;20525;-63
2021/09/12 06:51:00;;;;;;;6.40;3.50;;;;;;;20.64;70.22;100059.53;5087910;28;20036;-64
2021/09/12 06:53:26;;;;;;;12.90;3.75;;;;;;;20.70;70.27;100060.94;5080810;28;20127;-64
2021/09/12 06:55:53;;;;;;;7.88;4.45;;;;;;;20.67;70.21;100065.31;5085001;28;20147;-63
2021/09/12 06:58:20;;;;;;;7.07;3.20;;;;;;;20.87;69.81;100071.16;5075028;28;20076;-64
2021/09/12 07:00:47;;;;;;;7.78;3.30;;;;;;;20.91;69.64;100067.22;5073353;28;20075;-64
2021/09/12 07:03:14;;;;;;;9.27;4.03;;;;;;;20.95;69.67;100062.47;5087978;28;20131;-64
2021/09/12 07:05:42;;;;;;;7.43;3.65;;;;;;;21.08;69.12;100053.91;5078434;28;20048;-63
2021/09/12 07:08:08;;;;;;;8.75;4.15;;;;;;;21.24;68.78;100049.06;5086262;28;20044;-62
2021/09/12 07:10:35;;;;;;;7.45;3.47;;;;;;;21.49;68.32;100059.09;5088342;28;20533;-62
2021/09/12 07:13:02;;;;;;;7.18;2.85;;;;;;;21.60;68.24;100055.69;5087684;28;20143;-62
2021/09/12 07:15:30;;;;;;;8.23;3.80;;;;;;;21.59;67.72;100060.56;5083917;28;20044;-70
2021/09/12 07:17:57;;;;;;;6.53;3.22;;;;;;;21.81;67.47;100064.75;5085385;28;20127;-66
2021/09/12 07:20:24;;;;;;;5.20;3.20;;;;;;;22.03;66.73;100056.75;5077993;28;20105;-65
2021/09/12 07:22:51;;;;;;;7.95;3.20;;;;;;;22.34;66.05;100058.72;5082958;28;20100;-70
2021/09/12 07:25:19;;;;;;;6.10;3.30;;;;;;;22.51;65.34;100040.41;5086252;28;20414;-64
2021/09/12 07:27:46;;;;;;;6.20;3.40;;;;;;;22.63;65.37;100048.75;5084142;28;20131;-70
2021/09/12 07:30:14;;;;;;;8.20;4.13;;;;;;;22.61;65.25;100034.09;5077589;28;20464;-64
2021/09/12 07:32:42;;;;;;;7.03;3.83;;;;;;;22.54;65.03;100034.78;5081743;28;20408;-65
2021/09/12 07:35:09;;;;;;;6.78;3.50;;;;;;;22.76;64.64;100024.66;5082044;28;20159;-65
2021/09/12 07:37:36;;;;;;;7.53;3.42;;;;;;;23.11;64.36;100018.88;5075241;28;20075;-65
2021/09/12 07:40:03;;;;;;;8.52;3.38;;;;;;;23.74;63.55;100034.63;5079787;28;20130;-64
2021/09/12 07:42:30;;;;;;;6.93;3.28;;;;;;;23.98;62.15;100032.56;5089299;28;20212;-64
2021/09/12 07:44:57;;;;;;;5.03;2.83;;;;;;;23.73;61.08;99995.94;5089138;28;20075;-65
2021/09/12 07:47:24;;;;;;;6.53;3.42;;;;;;;24.22;60.82;100034.94;5086428;28;20075;-65
2021/09/12 07:49:51;;;;;;;4.32;2.58;;;;;;;24.56;60.10;100035.84;5086844;28;20480;-66
2021/09/12 07:52:18;;;;;;;5.03;2.63;;;;;;;25.05;59.43;100039.69;5083631;28;20048;-65
2021/09/12 07:54:45;;;;;;;4.00;2.40;;;;;;;25.51;58.08;100037.34;5072559;28;20127;-65
2021/09/12 07:57:12;;;;;;;4.28;2.40;;;;;;;26.03;57.38;100048.00;5089477;28;20058;-66
2021/09/12 07:59:39;;;;;;;4.10;2.33;;;;;;;26.06;55.92;100045.16;5088633;28;20052;-64
2021/09/12 08:02:05;;;;;;;3.97;2.58;;;;;;;26.28;55.77;100048.13;5084391;28;20139;-65
2021/09/12 08:04:33;;;;;;;5.28;2.17;;;;;;;26.47;54.79;100056.47;5079068;28;20044;-65
2021/09/12 08:07:00;;;;;;;5.03;3.08;;;;;;;26.71;53.84;100069.28;5091248;28;20139;-65
2021/09/12 08:09:26;;;;;;;6.05;2.38;;;;;;;27.16;52.93;100049.81;5092039;28;20044;-64
2021/09/12 08:11:53;;;;;;;2.88;2.00;;;;;;;27.46;52.26;100077.31;5079911;28;20567;-65
2021/09/12 08:14:20;;;;;;;4.15;2.05;;;;;;;27.80;51.26;100070.00;5075361;28;20564;-65
2021/09/12 08:16:47;;;;;;;6.30;2.65;;;;;;;27.95;50.56;100076.53;5080956;28;20119;-65
2021/09/12 08:19:14;;;;;;;7.05;2.25;;;;;;;27.69;50.87;100079.78;5087652;28;20075;-65
2021/09/12 08:21:42;;;;;;;5.97;1.90;;;;;;;27.32;50.81;100078.09;5087233;28;20044;-65
2021/09/12 08:24:09;;;;;;;6.35;1.75;;;;;;;26.83;51.09;100085.25;5080728;28;20044;-65
2021/09/12 08:26:36;;;;;;;6.97;1.30;;;;;;;26.53;51.42;100088.38;5090010;28;20097;-65
2021/09/12 08:29:03;;;;;;;3.63;1.83;;;;;;;26.15;52.11;100091.41;5082402;28;20120;-65
2021/09/12 08:31:30;;;;;;;3.67;1.70;;;;;;;25.94;52.25;100094.91;5088110;28;20550;-65
2021/09/12 08:33:57;;;;;;;5.88;1.75;;;;;;;25.63;52.70;100075.41;5083015;28;20036;-65
2021/09/12 08:36:24;;;;;;;2.80;1.48;;;;;;;25.72;52.92;100096.75;5092569;28;20076;-65
2021/09/12 08:38:51;;;;;;;3.25;1.70;;;;;;;25.62;52.57;100097.47;5090766;28;20542;-64
2021/09/12 08:41:19;;;;;;;3.50;2.10;;;;;;;25.64;52.92;100085.63;5090159;28;20127;-65
2021/09/12 08:43:47;;;;;;;3.88;1.98;;;;;;;25.80;52.60;100096.84;5082623;28;20546;-66
2021/09/12 08:46:15;;;;;;;3.50;1.80;;;;;;;26.27;52.39;100115.19;5087991;28;20048;-65
2021/09/12 08:48:44;;;;;;;3.65;1.52;;;;;;;26.74;51.55;100087.69;5083888;28;20127;-65
2021/09/12 08:51:12;;;;;;;3.42;1.80;;;;;;;27.51;50.48;100120.72;5091785;28;20131;-65
2021/09/12 08:53:39;;;;;;;4.88;1.73;;;;;;;28.00;49.40;100118.34;5083797;28;20426;-65
2021/09/12 08:56:05;;;;;;;5.32;1.88;;;;;;;28.65;49.10;100124.84;5090009;28;20091;-65
2021/09/12 08:58:33;;;;;;;2.72;1.83;;;;;;;29.20;47.89;100115.66;5090806;28;20739;-66
2021/09/12 09:01:00;;;;;;;3.08;1.50;;;;;;;29.72;46.95;100118.66;5081446;28;20072;-64
2021/09/12 09:03:41;;;;;;;5.50;2.05;;;;;;;30.32;47.01;100117.31;5088483;28;20036;-64
2021/09/12 09:06:19;;;;;;;3.70;1.60;;;;;;;30.65;45.76;100117.81;5083717;28;20044;-65
2021/09/12 09:08:49;;;;;;;3.13;1.60;;;;;;;30.65;44.95;100114.94;5079801;28;20140;-66
2021/09/12 09:11:44;;;;;;;3.85;1.73;;;;;;;30.39;45.47;100111.53;5083772;28;20480;-67
2021/09/12 09:14:21;;;;;;;3.85;1.88;;;;;;;30.63;45.68;100100.97;5081395;28;20127;-66
2021/09/12 09:16:51;;;;;;;4.90;2.38;;;;;;;30.92;44.08;100104.34;5083472;28;20078;-66
2021/09/12 09:19:18;;;;;;;2.85;1.67;;;;;;;31.01;43.96;100103.84;5082446;28;20488;-67
2021/09/12 09:21:47;;;;;;;4.45;1.80;;;;;;;31.16;43.14;100101.59;5084937;28;20126;-69
2021/09/12 09:24:22;;;;;;;2.33;1.98;;;;;;;31.46;43.25;100097.91;5078603;28;20121;-69
2021/09/12 09:27:01;;;;;;;2.25;1.48;;;;;;;32.09;42.06;100100.19;5083067;28;20422;-66
2021/09/12 09:29:35;;;;;;;6.07;1.67;;;;;;;32.62;40.92;100114.97;5081917;28;20082;-67
2021/09/12 09:32:06;;;;;;;3.97;1.67;;;;;;;33.00;40.08;100101.00;5083105;28;20127;-70
2021/09/12 09:34:35;;;;;;;4.18;1.92;;;;;;;33.53;39.24;100104.78;5076930;28;20127;-68
2021/09/12 09:37:11;;;;;;;3.00;1.02;;;;;;;33.31;39.42;100103.63;5084888;28;20047;-67
2021/09/12 09:39:41;;;;;;;3.22;2.08;;;;;;;32.79;39.45;100103.03;5091440;28;20044;-66
2021/09/12 09:42:46;;;;;;;2.60;1.40;;;;;;;32.07;40.37;100096.94;5085229;28;20044;-67
2021/09/12 09:45:19;;;;;;;4.20;1.55;;;;;;;31.53;40.23;100092.00;5079433;28;20067;-68
2021/09/12 09:47:51;;;;;;;3.20;1.48;;;;;;;31.38;40.54;100079.88;5093943;28;20090;-68
2021/09/12 09:50:21;;;;;;;2.28;1.55;;;;;;;31.64;40.57;100097.63;5085345;28;20226;-74
2021/09/12 09:52:53;;;;;;;4.35;1.90;;;;;;;31.74;40.66;100092.94;5071846;28;20477;-73
2021/09/12 09:55:25;;;;;;;3.47;1.25;;;;;;;31.94;39.60;100098.81;5081527;28;20094;-74
2021/09/12 09:57:54;;;;;;;2.53;1.40;;;;;;;31.99;39.05;100087.56;5089468;28;20119;-73
2021/09/12 10:00:23;;;;;;;5.38;1.70;;;;;;;32.13;38.85;100100.94;5084344;28;20059;-75
2021/09/12 10:02:50;;;;;;;2.65;1.52;;;;;;;32.16;39.04;100105.03;5088793;28;20083;-73
2021/09/12 10:05:21;;;;;;;5.35;1.60;;;;;;;31.77;39.38;100101.53;5078160;28;20127;-73
2021/09/12 10:07:48;;;;;;;4.00;2.40;;;;;;;31.93;38.95;100092.22;5091575;28;20083;-73
2021/09/12 10:10:17;;;;;;;2.78;2.08;;;;;;;32.36;38.57;100076.19;5080450;28;20128;-75
2021/09/12 10:12:54;;;;;;;5.05;1.80;;;;;;;32.70;38.57;100088.34;5079585;28;20137;-70
2021/09/12 10:15:28;;;;;;;2.65;1.45;;;;;;;33.22;38.02;100078.19;5078093;28;20127;-70
2021/09/12 10:17:56;;;;;;;1.85;1.30;;;;;;;33.34;37.38;100073.81;5076327;28;20076;-70
2021/09/12 10:20:27;;;;;;;2.88;1.40;;;;;;;33.12;37.33;100071.38;5086238;28;20470;-69
2021/09/12 10:23:12;;;;;;;2.35;1.83;;;;;;;32.58;37.96;100086.09;5088867;28;20411;-68
2021/09/12 10:25:48;;;;;;;3.70;1.50;;;;;;;32.36;38.08;100073.31;5082255;28;20063;-69
2021/09/12 10:28:36;;;;;;;2.38;1.60;;;;;;;32.48;38.27;100075.56;5084427;28;20127;-71
2021/09/12 10:31:25;;;;;;;2.30;1.30;;;;;;;32.91;38.04;100068.91;5089075;28;20114;-70
2021/09/12 10:34:22;;;;;;;2.53;1.85;;;;;;;33.02;37.76;100067.44;5076567;28;20040;-70
2021/09/12 10:36:49;;;;;;;3.50;1.50;;;;;;;33.45;37.52;100085.94;5064430;28;20048;-71
2021/09/12 10:39:35;;;;;;;2.05;1.50;;;;;;;33.72;37.26;100066.28;5081808;28;20128;-70
2021/09/12 10:42:22;;;;;;;2.25;1.27;;;;;;;34.20;37.24;100066.75;5078508;28;20132;-71
2021/09/12 10:45:22;;;;;;;5.25;1.40;;;;;;;34.73;36.82;100067.34;5090242;28;20127;-70
2021/09/12 10:47:49;;;;;;;3.70;1.67;;;;;;;35.33;35.67;100061.81;5080999;28;20060;-70
2021/09/12 10:50:40;;;;;;;1.92;1.35;;;;;;;35.55;35.47;100067.78;5089152;28;20098;-68
2021/09/12 10:53:08;;;;;;;2.35;1.38;;;;;;;35.33;34.24;100069.72;5086271;28;20097;-68
2021/09/12 10:55:59;;;;;;;2.97;1.30;;;;;;;34.87;35.71;100057.41;5080102;28;20143;-63
2021/09/12 10:58:28;;;;;;;3.90;1.40;;;;;;;35.11;35.53;100043.44;5079228;28;20054;-63
2021/09/12 11:00:57;;;;;;;4.90;2.03;;;;;;;35.11;35.03;100047.19;5071592;28;20455;-62
2021/09/12 11:03:25;;;;;;;2.80;1.27;;;;;;;34.90;35.38;100033.28;5074978;28;20147;-63
2021/09/12 11:05:53;;;;;;;3.08;1.30;;;;;;;34.73;35.28;100040.44;5072215;28;20102;-66
2021/09/12 11:08:31;;;;;;;3.65;2.50;;;;;;;34.30;35.55;100039.56;5080887;28;20072;-66
2021/09/12 11:10:58;;;;;;;4.63;1.60;;;;;;;33.70;36.71;100033.22;5081928;28;20041;-66
2021/09/12 11:13:26;;;;;;;3.97;2.00;;;;;;;33.58;36.83;100026.09;5076296;28;20480;-66
2021/09/12 11:16:07;;;;;;;4.45;2.40;;;;;;;33.13;37.31;100015.16;5079192;28;20541;-64
2021/09/12 11:19:01;;;;;;;3.30;2.00;;;;;;;32.83;38.16;100015.41;5085615;28;20087;-65
2021/09/12 11:21:37;;;;;;;5.03;2.53;;;;;;;32.79;38.27;100004.72;5079180;28;20070;-66
2021/09/12 11:24:05;;;;;;;4.88;2.00;;;;;;;33.33;37.86;100011.38;5083873;28;20975;-65
2021/09/12 11:26:47;;;;;;;5.68;2.35;;;;;;;33.33;37.68;100009.28;5078125;28;20044;-65
2021/09/12 11:29:18;;;;;;;4.55;2.47;;;;;;;33.15;38.46;100018.41;5072957;28;20075;-74
2021/09/12 11:31:47;;;;;;;3.15;1.90;;;;;;;33.23;37.43;100005.41;5083352;28;20115;-72
2021/09/12 11:34:23;;;;;;;2.58;1.52;;;;;;;33.28;38.02;100014.81;5090367;28;20131;-72